Time;durP1;ratioP1;P1;durP2;ratioP2;P2;SDS_P1;SDS_P2;PMS_P1;PMS_P2;Temp;Humidity;BMP_temperature;BMP_pressure;BME280_temperature;BME280_humidity;BME280_pressure;Samples;Min_cycle;Max_cycle;Signal;HPM_P1;HPM_P2
2024/01/06 00:01:42;;;;;;;;;;;;;;;5.97;100.00;100240.28;5029358;28;19929;-77
2024/01/06 00:04:07;;;;;;;;;;;;;;;5.93;100.00;100246.34;5028180;28;20364;-77
2024/01/06 00:06:33;;;;;;;;;;;;;;;5.94;100.00;100242.88;5032995;28;20433;-76
2024/01/06 00:08:58;;;;;;;;;;;;;;;5.83;100.00;100250.69;5020089;28;19921;-77
2024/01/06 00:11:23;;;;;;;;;;;;;;;5.83;100.00;100251.56;5036773;28;19920;-77
2024/01/06 00:13:49;;;;;;;;;;;;;;;5.89;100.00;100255.91;5017448;28;20023;-77
2024/01/06 00:16:19;;;;;;;;;;;;;;;5.83;100.00;100261.09;5024133;28;19917;-78
2024/01/06 00:18:45;;;;;;;;;;;;;;;5.84;100.00;100257.63;5020641;28;20013;-78
2024/01/06 00:21:10;;;;;;;;;;;;;;;5.81;100.00;100268.91;5042454;28;19995;-77
2024/01/06 00:23:35;;;;;;;;;;;;;;;5.71;100.00;100269.78;5021471;28;19917;-78
2024/01/06 00:26:10;;;;;;;;;;;;;;;5.67;100.00;100274.09;5034664;28;20253;-75
2024/01/06 00:28:36;;;;;;;;;;;;;;;5.67;100.00;100283.66;5028198;28;20028;-78
2024/01/06 00:31:01;;;;;;;;;;;;;;;5.54;100.00;100288.84;5042707;28;20019;-78
2024/01/06 00:33:26;;;;;;;;;;;;;;;5.46;100.00;100287.09;5031155;28;20008;-77
2024/01/06 00:35:52;;;;;;;;;;;;;;;5.37;100.00;100287.97;5009014;28;20086;-76
2024/01/06 00:38:17;;;;;;;;;;;;;;;5.35;100.00;100289.72;5032273;28;19932;-78
2024/01/06 00:40:42;;;;;;;;;;;;;;;5.33;100.00;100291.44;5015450;28;19921;-79
2024/01/06 00:43:08;;;;;;;;;;;;;;;5.25;100.00;100288.84;5049256;28;20349;-76
2024/01/06 00:45:35;;;;;;;;;;;;;;;5.32;100.00;100292.31;5020577;28;20308;-78
2024/01/06 00:48:02;;;;;;;;;;;;;;;5.23;100.00;100294.88;5036823;28;19924;-78
2024/01/06 00:50:27;;;;;;;;;;;;;;;5.19;100.00;100294.03;5014348;28;19929;-78
2024/01/06 00:52:54;;;;;;;;;;;;;;;5.15;100.00;100293.13;5031923;28;19925;-78
2024/01/06 00:55:19;;;;;;;;;;;;;;;5.11;100.00;100301.78;5019011;28;19917;-77
2024/01/06 00:57:45;;;;;;;;;;;;;;;5.16;100.00;100299.22;5035883;28;19994;-79
2024/01/06 01:00:10;;;;;;;;;;;;;;;5.12;100.00;100298.34;5039567;28;19920;-78
2024/01/06 01:02:36;;;;;;;;;;;;;;;5.09;100.00;100298.34;5019849;28;19991;-78
2024/01/06 01:05:01;;;;;;;;;;;;;;;5.06;100.00;100307.84;5039594;28;20344;-75
2024/01/06 01:07:27;;;;;;;;;;;;;;;5.01;100.00;100310.44;5022228;28;20340;-77
2024/01/06 01:09:52;;;;;;;;;;;;;;;4.99;100.00;100312.16;5019484;28;20273;-77
2024/01/06 01:12:19;;;;;;;;;;;;;;;5.04;100.00;100313.03;5048187;28;20297;-78
2024/01/06 01:14:44;;;;;;;;;;;;;;;4.98;100.00;100307.81;5021827;28;20006;-78
2024/01/06 01:17:09;;;;;;;;;;;;;;;4.97;100.00;100316.47;5034061;28;20417;-77
2024/01/06 01:19:35;;;;;;;;;;;;;;;4.92;100.00;100315.59;5018897;28;19979;-77
2024/01/06 01:22:00;;;;;;;;;;;;;;;4.91;100.00;100319.91;5028720;28;19947;-77
2024/01/06 01:24:26;;;;;;;;;;;;;;;4.90;100.00;100331.19;5019655;28;20376;-77
2024/01/06 01:26:51;;;;;;;;;;;;;;;4.82;100.00;100336.34;5018581;28;19921;-77
2024/01/06 01:29:17;;;;;;;;;;;;;;;4.82;100.00;100331.13;5025810;28;19917;-78
2024/01/06 01:31:42;;;;;;;;;;;;;;;4.83;100.00;100335.47;5046147;28;20372;-78
2024/01/06 01:34:07;;;;;;;;;;;;;;;4.79;100.00;100338.91;5033936;28;19917;-71
2024/01/06 01:36:33;;;;;;;;;;;;;;;4.74;100.00;100343.25;5040375;28;19991;-71
2024/01/06 01:38:58;;;;;;;;;;;;;;;4.74;100.00;100340.66;5021913;28;19928;-71
2024/01/06 01:41:24;;;;;;;;;;;;;;;4.80;100.00;100347.59;5033421;28;19917;-71
2024/01/06 01:43:57;;;;;;;;;;;;;;;4.79;100.00;100341.50;5012433;28;19959;-72
2024/01/06 01:46:23;;;;;;;;;;;;;;;4.72;100.00;100360.53;5048611;28;19974;-72
2024/01/06 01:48:49;;;;;;;;;;;;;;;4.73;100.00;100358.81;5015493;28;19928;-71
2024/01/06 01:51:15;;;;;;;;;;;;;;;4.70;100.00;100359.66;5011431;28;19925;-71
2024/01/06 01:53:42;;;;;;;;;;;;;;;4.67;100.00;100357.06;5019122;28;19975;-71
2024/01/06 01:56:08;;;;;;;;;;;;;;;4.67;100.00;100357.06;5017799;28;20292;-71
2024/01/06 01:58:33;;;;;;;;;;;;;;;4.68;100.00;100363.97;5013334;28;19925;-71
2024/01/06 02:01:00;;;;;;;;;;;;;;;4.68;100.00;100361.38;5033969;28;19932;-77
2024/01/06 02:03:26;;;;;;;;;;;;;;;4.77;100.00;100371.81;5032212;28;19921;-77
2024/01/06 02:05:51;;;;;;;;;;;;;;;4.71;100.00;100369.16;5029550;28;19921;-77
2024/01/06 02:08:16;;;;;;;;;;;;;;;4.68;100.00;100377.81;5035223;28;19956;-77
2024/01/06 02:10:42;;;;;;;;;;;;;;;4.61;100.00;100372.56;5041158;28;19999;-77
2024/01/06 02:13:08;;;;;;;;;;;;;;;4.59;100.00;100382.09;5034973;28;19924;-76
2024/01/06 02:15:34;;;;;;;;;;;;;;;4.55;100.00;100388.13;5018076;28;19925;-76
2024/01/06 02:18:00;;;;;;;;;;;;;;;4.51;100.00;100388.13;5026957;28;19925;-77
2024/01/06 02:20:25;;;;;;;;;;;;;;;4.52;100.00;100391.56;5031493;28;20004;-77
2024/01/06 02:22:52;;;;;;;;;;;;;;;4.44;100.00;100390.63;5015437;28;19921;-77
2024/01/06 02:25:18;;;;;;;;;;;;;;;4.38;100.00;100396.66;5034161;28;19917;-78
2024/01/06 02:27:43;;;;;;;;;;;;;;;4.38;100.00;100407.03;5019932;28;20431;-77
2024/01/06 02:30:09;;;;;;;;;;;;;;;4.39;100.00;100407.91;5022904;28;20003;-77
2024/01/06 02:32:34;;;;;;;;;;;;;;;4.26;100.00;100412.16;5031731;28;19924;-77
2024/01/06 02:34:59;;;;;;;;;;;;;;;4.23;100.00;100413.00;5037380;28;19929;-78
2024/01/06 02:37:25;;;;;;;;;;;;;;;4.30;100.00;100426.88;5014719;28;19929;-78
2024/01/06 02:39:51;;;;;;;;;;;;;;;4.23;100.00;100425.97;5013167;28;19928;-78
2024/01/06 02:42:16;;;;;;;;;;;;;;;4.22;100.00;100431.16;5028908;28;20377;-77
2024/01/06 02:44:42;;;;;;;;;;;;;;;4.13;100.00;100424.16;5045384;28;19964;-77
2024/01/06 02:47:07;;;;;;;;;;;;;;;4.25;100.00;100431.16;5016082;28;19963;-74
2024/01/06 02:49:32;;;;;;;;;;;;;;;4.29;100.00;100435.53;5025713;28;19917;-77
2024/01/06 02:51:57;;;;;;;;;;;;;;;4.12;100.00;100430.19;5020785;28;19931;-78
2024/01/06 02:54:23;;;;;;;;;;;;;;;4.04;100.00;100437.94;5018049;28;19921;-78
2024/01/06 02:56:48;;;;;;;;;;;;;;;4.04;100.00;100452.59;5020767;28;20300;-78
2024/01/06 02:59:13;;;;;;;;;;;;;;;4.06;100.00;100448.31;5026390;28;20348;-76
2024/01/06 03:01:39;;;;;;;;;;;;;;;4.01;100.00;100456.06;5024438;28;19921;-76
2024/01/06 03:04:04;;;;;;;;;;;;;;;3.97;100.00;100459.47;5027228;28;19924;-79
2024/01/06 03:06:29;;;;;;;;;;;;;;;3.97;100.00;100467.25;5032472;28;19932;-78
2024/01/06 03:08:55;;;;;;;;;;;;;;;3.94;100.00;100469.81;5024765;28;19964;-77
2024/01/06 03:11:20;;;;;;;;;;;;;;;3.99;100.00;100475.91;5022302;28;19940;-77
2024/01/06 03:13:45;;;;;;;;;;;;;;;3.93;100.00;100475.84;5026606;28;19925;-77
2024/01/06 03:16:11;;;;;;;;;;;;;;;3.97;100.00;100482.81;5013565;28;19925;-77
2024/01/06 03:18:37;;;;;;;;;;;;;;;3.99;100.00;100481.97;5042518;28;19917;-77
2024/01/06 03:21:03;;;;;;;;;;;;;;;3.95;100.00;100493.16;5027963;28;20534;-77
2024/01/06 03:23:28;;;;;;;;;;;;;;;3.92;100.00;100493.13;5029672;28;19921;-77
2024/01/06 03:25:54;;;;;;;;;;;;;;;4.01;100.00;100496.66;5034309;28;20505;-77
2024/01/06 03:28:21;;;;;;;;;;;;;;;3.89;100.00;100497.41;5025535;28;20411;-77
2024/01/06 03:30:47;;;;;;;;;;;;;;;3.96;100.00;100491.44;5030279;28;19932;-76
2024/01/06 03:33:12;;;;;;;;;;;;;;;3.81;100.00;100495.59;5048801;28;19920;-78
2024/01/06 03:35:37;;;;;;;;;;;;;;;3.81;100.00;100492.16;5033840;28;19921;-77
2024/01/06 03:38:03;;;;;;;;;;;;;;;3.76;100.00;100499.00;5029898;28;19921;-78
2024/01/06 03:40:28;;;;;;;;;;;;;;;3.75;100.00;100492.97;5022411;28;19936;-77
2024/01/06 03:42:53;;;;;;;;;;;;;;;3.89;100.00;100500.00;5038369;28;19936;-77
2024/01/06 03:45:22;;;;;;;;;;;;;;;3.77;100.00;100501.59;5024754;28;19925;-77
2024/01/06 03:47:47;;;;;;;;;;;;;;;3.74;100.00;100503.31;5035155;28;19917;-77
2024/01/06 03:50:13;;;;;;;;;;;;;;;3.76;100.00;100514.56;5035700;28;19971;-77
2024/01/06 03:52:38;;;;;;;;;;;;;;;3.70;100.00;100512.75;5040014;28;20020;-77
2024/01/06 03:55:05;;;;;;;;;;;;;;;3.93;100.00;100512.13;5048759;28;19988;-76
2024/01/06 03:57:30;;;;;;;;;;;;;;;3.76;100.00;100520.59;5027649;28;19968;-77
2024/01/06 03:59:56;;;;;;;;;;;;;;;3.95;100.00;100525.97;5015319;28;19955;-78
2024/01/06 04:02:21;;;;;;;;;;;;;;;3.81;100.00;100526.72;5035552;28;20335;-76
2024/01/06 04:04:46;;;;;;;;;;;;;;;3.72;100.00;100529.22;5022286;28;19935;-77
2024/01/06 04:07:12;;;;;;;;;;;;;;;3.61;100.00;100536.84;5034465;28;20295;-78
2024/01/06 04:09:37;;;;;;;;;;;;;;;3.61;100.00;100529.06;5025328;28;19971;-77
2024/01/06 04:12:03;;;;;;;;;;;;;;;3.62;100.00;100530.81;5020830;28;19921;-78
2024/01/06 04:14:28;;;;;;;;;;;;;;;3.54;100.00;100529.84;5034308;28;20340;-78
2024/01/06 04:16:55;;;;;;;;;;;;;;;3.52;100.00;100530.69;5030479;28;19964;-78
2024/01/06 04:19:20;;;;;;;;;;;;;;;3.57;100.00;100534.22;5017665;28;19982;-78
2024/01/06 04:21:47;;;;;;;;;;;;;;;3.53;100.00;100538.47;5027986;28;20015;-78
2024/01/06 04:24:12;;;;;;;;;;;;;;;3.44;100.00;100533.19;5028936;28;20332;-77
2024/01/06 04:26:38;;;;;;;;;;;;;;;3.43;100.00;100545.28;5042596;28;20047;-77
2024/01/06 04:29:03;;;;;;;;;;;;;;;3.39;100.00;100552.97;5044547;28;19950;-78
2024/01/06 04:31:28;;;;;;;;;;;;;;;3.39;100.00;100550.38;5027890;28;19971;-78
2024/01/06 04:33:54;;;;;;;;;;;;;;;3.33;100.00;100552.91;5011817;28;20003;-78
2024/01/06 04:36:19;;;;;;;;;;;;;;;3.37;100.00;100552.94;5022095;28;19929;-77
2024/01/06 04:38:45;;;;;;;;;;;;;;;3.33;100.00;100558.06;5024725;28;19929;-78
2024/01/06 04:41:10;;;;;;;;;;;;;;;3.34;100.00;100560.69;5037641;28;19920;-78
2024/01/06 04:43:35;;;;;;;;;;;;;;;3.39;100.00;100571.09;5038471;28;19928;-78
2024/01/06 04:46:03;;;;;;;;;;;;;;;3.32;100.00;100564.09;5013169;28;19925;-78
2024/01/06 04:48:28;;;;;;;;;;;;;;;3.29;100.00;100565.81;5036383;28;19924;-78
2024/01/06 04:50:54;;;;;;;;;;;;;;;3.34;100.00;100568.47;5012590;28;19921;-78
2024/01/06 04:53:19;;;;;;;;;;;;;;;3.39;100.00;100571.09;5015122;28;20693;-77
2024/01/06 04:55:44;;;;;;;;;;;;;;;3.32;100.00;100569.28;5032477;28;19968;-78
2024/01/06 04:58:10;;;;;;;;;;;;;;;3.31;100.00;100577.91;5030494;28;21676;-78
2024/01/06 05:00:36;;;;;;;;;;;;;;;3.34;100.00;100578.81;5039471;28;19917;-78
2024/01/06 05:03:02;;;;;;;;;;;;;;;3.32;100.00;100579.63;5023817;28;19983;-78
2024/01/06 05:05:27;;;;;;;;;;;;;;;3.43;100.00;100591.91;5050269;28;20312;-78
2024/01/06 05:07:53;;;;;;;;;;;;;;;3.30;100.00;100589.97;5019779;28;19921;-80
2024/01/06 05:10:18;;;;;;;;;;;;;;;3.31;100.00;100589.13;5018521;28;20380;-78
2024/01/06 05:12:44;;;;;;;;;;;;;;;3.25;100.00;100595.09;5022588;28;19920;-78
2024/01/06 05:15:09;;;;;;;;;;;;;;;3.27;100.00;100593.38;5028112;28;19983;-78
2024/01/06 05:17:34;;;;;;;;;;;;;;;3.23;100.00;100589.03;5046279;28;20565;-78
2024/01/06 05:20:00;;;;;;;;;;;;;;;3.28;100.00;100600.31;5038603;28;19925;-78
2024/01/06 05:22:26;;;;;;;;;;;;;;;3.23;100.00;100603.69;5018122;28;20016;-78
2024/01/06 05:24:53;;;;;;;;;;;;;;;3.23;100.00;100599.41;5047729;28;19917;-78
2024/01/06 05:27:18;;;;;;;;;;;;;;;3.26;100.00;100608.91;5040330;28;19916;-78
2024/01/06 05:29:44;;;;;;;;;;;;;;;3.26;100.00;100614.09;5035940;28;20045;-78
2024/01/06 05:32:09;;;;;;;;;;;;;;;3.32;100.00;100608.13;5042033;28;19925;-78
2024/01/06 05:34:34;;;;;;;;;;;;;;;3.29;100.00;100616.75;5023904;28;19921;-78
2024/01/06 05:37:00;;;;;;;;;;;;;;;3.28;100.00;100621.03;5011891;28;20333;-78
2024/01/06 05:39:25;;;;;;;;;;;;;;;3.24;100.00;100615.81;5025151;28;19935;-78
2024/01/06 05:41:50;;;;;;;;;;;;;;;3.31;100.00;100616.78;5026851;28;19921;-78
2024/01/06 05:44:16;;;;;;;;;;;;;;;3.24;100.00;100614.06;5047469;28;19925;-78
2024/01/06 05:46:41;;;;;;;;;;;;;;;3.37;100.00;100624.63;5028943;28;19917;-77
2024/01/06 05:49:06;;;;;;;;;;;;;;;3.28;100.00;100628.81;5023822;28;20305;-77
2024/01/06 05:51:32;;;;;;;;;;;;;;;3.33;100.00;100639.22;5021096;28;20343;-78
2024/01/06 05:53:57;;;;;;;;;;;;;;;3.29;100.00;100629.69;5035615;28;19924;-78
2024/01/06 05:56:26;;;;;;;;;;;;;;;3.24;100.00;100639.09;5029943;28;20385;-78
2024/01/06 05:58:52;;;;;;;;;;;;;;;3.24;100.00;100639.97;5016724;28;19921;-78
2024/01/06 06:01:18;;;;;;;;;;;;;;;3.28;100.00;100651.25;5035275;28;19978;-78
2024/01/06 06:03:44;;;;;;;;;;;;;;;3.20;100.00;100652.84;5027836;28;20319;-78
2024/01/06 06:06:09;;;;;;;;;;;;;;;3.21;100.00;100642.50;5023841;28;19929;-78
2024/01/06 06:08:35;;;;;;;;;;;;;;;3.33;100.00;100656.50;5019575;28;19925;-77
2024/01/06 06:11:10;;;;;;;;;;;;;;;3.38;100.00;100658.31;5014255;28;20641;-78
2024/01/06 06:13:36;;;;;;;;;;;;;;;3.24;100.00;100658.09;5024775;28;19960;-78
2024/01/06 06:16:02;;;;;;;;;;;;;;;3.22;100.00;100669.28;5024148;28;19980;-79
2024/01/06 06:18:27;;;;;;;;;;;;;;;3.23;100.00;100671.91;5032767;28;20403;-76
2024/01/06 06:20:53;;;;;;;;;;;;;;;3.19;100.00;100679.59;5032455;28;20015;-78
2024/01/06 06:23:19;;;;;;;;;;;;;;;3.18;100.00;100677.88;5033221;28;19929;-78
2024/01/06 06:25:44;;;;;;;;;;;;;;;3.16;100.00;100685.63;5000353;28;19996;-78
2024/01/06 06:28:10;;;;;;;;;;;;;;;3.14;100.00;100689.88;5020280;28;20015;-79
2024/01/06 06:30:35;;;;;;;;;;;;;;;3.15;100.00;100695.91;5033907;28;20354;-77
2024/01/06 06:33:00;;;;;;;;;;;;;;;3.12;100.00;100697.63;5030416;28;19928;-78
2024/01/06 06:35:25;;;;;;;;;;;;;;;3.08;100.00;100701.00;5014772;28;19925;-78
2024/01/06 06:37:51;;;;;;;;;;;;;;;3.09;100.00;100701.91;5042209;28;19967;-77
2024/01/06 06:40:16;;;;;;;;;;;;;;;3.08;100.00;100703.59;5020957;28;19964;-78
2024/01/06 06:42:41;;;;;;;;;;;;;;;3.10;100.00;100712.28;5022922;28;19998;-79
2024/01/06 06:45:07;;;;;;;;;;;;;;;3.04;100.00;100714.75;5016964;28;20003;-78
2024/01/06 06:47:32;;;;;;;;;;;;;;;3.07;100.00;100714.78;5027657;28;19992;-78
2024/01/06 06:49:58;;;;;;;;;;;;;;;3.10;100.00;100719.16;5034641;28;19928;-78
2024/01/06 06:52:23;;;;;;;;;;;;;;;3.05;100.00;100726.84;5038785;28;20363;-77
2024/01/06 06:54:48;;;;;;;;;;;;;;;3.05;100.00;100729.44;5034481;28;19963;-78
2024/01/06 06:57:14;;;;;;;;;;;;;;;3.10;100.00;100734.69;5024219;28;19917;-77
2024/01/06 06:59:40;;;;;;;;;;;;;;;3.04;100.00;100740.63;5015243;28;19932;-78
2024/01/06 07:02:06;;;;;;;;;;;;;;;3.10;100.00;100758.88;5025092;28;19921;-76
2024/01/06 07:04:31;;;;;;;;;;;;;;;3.08;100.00;100762.28;5017530;28;20403;-78
2024/01/06 07:06:57;;;;;;;;;;;;;;;2.99;100.00;100768.16;5014800;28;19921;-76
2024/01/06 07:09:25;;;;;;;;;;;;;;;3.05;100.00;100770.84;5019381;28;19963;-78
2024/01/06 07:11:51;;;;;;;;;;;;;;;3.07;100.00;100763.97;5023981;28;19932;-79
2024/01/06 07:14:16;;;;;;;;;;;;;;;3.02;100.00;100772.53;5040766;28;19924;-77
2024/01/06 07:16:41;;;;;;;;;;;;;;;3.01;100.00;100775.97;5033464;28;19947;-75
2024/01/06 07:19:07;;;;;;;;;;;;;;;2.88;100.00;100773.13;5047880;28;20309;-77
2024/01/06 07:21:32;;;;;;;;;;;;;;;2.88;100.00;100777.44;5064590;22;19926;-73
2024/01/06 07:23:57;;;;;;;;;;;;;;;2.82;100.00;100782.53;4990467;28;19972;-72
2024/01/06 07:26:23;;;;;;;;;;;;;;;2.81;100.00;100778.19;5027910;28;20040;-74
2024/01/06 07:28:48;;;;;;;;;;;;;;;2.82;100.00;100787.69;5013582;28;19925;-73
2024/01/06 07:31:14;;;;;;;;;;;;;;;2.89;100.00;100787.84;5004520;28;20301;-72
2024/01/06 07:33:39;;;;;;;;;;;;;;;2.84;100.00;100788.59;5030183;28;19924;-72
2024/01/06 08:54:20;;;;;;;;;;;;;;;2.57;100.00;100917.44;5190448;22;19955;-73
2024/01/06 08:56:45;;;;;;;;;;;;;;;2.51;100.00;100927.63;5057890;28;19932;-80
2024/01/06 08:59:10;;;;;;;;;;;;;;;2.52;100.00;100925.94;5043354;28;19921;-78
2024/01/06 09:01:37;;;;;;;;;;;;;;;2.55;100.00;100931.19;5056788;28;19920;-79
2024/01/06 09:04:02;;;;;;;;;;;;;;;2.50;100.00;100927.59;5050004;28;20445;-78
2024/01/06 09:06:28;;;;;;;;;;;;;;;2.52;100.00;100933.69;5051351;28;19920;-78
2024/01/06 09:08:53;;;;;;;;;;;;;;;2.65;100.00;100929.66;5047098;28;20269;-80
2024/01/06 09:11:18;;;;;;;;;;;;;;;2.58;100.00;100936.41;5047682;28;20332;-78
2024/01/06 09:13:45;;;;;;;;;;;;;;;2.67;100.00;100944.41;5044522;28;19952;-76
2024/01/06 09:16:10;;;;;;;;;;;;;;;2.54;100.00;100945.84;5072847;28;19977;-80
2024/01/06 09:18:36;;;;;;;;;;;;;;;2.55;100.00;100949.28;5055688;28;20375;-79
2024/01/06 09:21:01;;;;;;;;;;;;;;;2.58;100.00;100955.38;5051249;28;19920;-78
2024/01/06 09:23:28;;;;;;;;;;;;;;;2.58;100.00;100957.97;5052869;28;20043;-79
2024/01/06 09:25:54;;;;;;;;;;;;;;;2.58;100.00;100954.53;5061404;28;19922;-78
2024/01/06 09:28:21;;;;;;;;;;;;;;;2.63;100.00;100965.88;5070921;28;19920;-79
2024/01/06 09:30:46;;;;;;;;;;;;;;;2.63;100.00;100965.88;5040632;28;19924;-80
2024/01/06 09:33:15;;;;;;;;;;;;;;;2.59;100.00;100972.66;5053838;28;19946;-78
2024/01/06 09:35:41;;;;;;;;;;;;;;;2.56;100.00;100971.75;5041535;28;20992;-79
2024/01/06 09:38:07;;;;;;;;;;;;;;;2.61;100.00;100985.63;5047381;28;20542;-78
2024/01/06 09:40:34;;;;;;;;;;;;;;;2.68;100.00;100984.94;5061922;28;19923;-80
2024/01/06 09:43:01;;;;;;;;;;;;;;;2.60;100.00;100992.53;5056603;28;19954;-79
2024/01/06 09:45:28;;;;;;;;;;;;;;;2.59;100.00;100992.50;5068689;28;20273;-77
2024/01/06 09:47:54;;;;;;;;;;;;;;;2.69;100.00;100996.19;5046229;28;19917;-78
2024/01/06 09:50:20;;;;;;;;;;;;;;;2.58;100.00;101006.25;5045486;28;20007;-80
2024/01/06 09:52:53;;;;;;;;;;;;;;;2.57;100.00;101009.69;5065293;28;20023;-79
2024/01/06 09:55:22;;;;;;;;;;;;;;;2.59;100.00;101015.78;5062368;28;19925;-82
2024/01/06 09:57:47;;;;;;;;;;;;;;;2.62;100.00;101015.00;5070694;28;19922;-79
2024/01/06 10:00:13;;;;;;;;;;;;;;;2.60;100.00;101012.34;5056901;28;19920;-79
2024/01/06 10:02:40;;;;;;;;;;;;;;;2.65;100.00;101015.91;5054964;28;20380;-80
2024/01/06 10:05:06;;;;;;;;;;;;;;;2.66;100.00;101022.84;5069997;28;19920;-80
2024/01/06 10:07:31;;;;;;;;;;;;;;;2.76;100.00;101024.81;5070713;28;19912;-78
2024/01/06 10:09:56;;;;;;;;;;;;;;;2.66;100.00;101028.03;5052819;28;19969;-79
2024/01/06 10:12:26;;;;;;;;;;;;;;;2.68;100.00;101035.81;5051868;28;19916;-76
2024/01/06 10:14:51;;;;;;;;;;;;;;;2.70;100.00;101040.19;5054258;28;19928;-77
2024/01/06 10:17:21;;;;;;;;;;;;;;;2.63;100.00;101037.41;5041066;28;20445;-80
2024/01/06 10:19:47;;;;;;;;;;;;;;;2.61;100.00;101047.72;5063937;28;19928;-78
2024/01/06 10:22:13;;;;;;;;;;;;;;;2.64;100.00;101054.69;5056475;28;19916;-80
2024/01/06 10:24:38;;;;;;;;;;;;;;;2.62;100.00;101046.03;5058914;28;19961;-79
2024/01/06 10:27:03;;;;;;;;;;;;;;;2.65;100.00;101052.16;5069802;28;19923;-80
2024/01/06 10:29:29;;;;;;;;;;;;;;;2.61;100.00;101045.16;5055747;28;19924;-78
2024/01/06 10:31:54;;;;;;;;;;;;;;;2.60;100.00;101045.97;5047953;28;20416;-79
2024/01/06 10:34:20;;;;;;;;;;;;;;;2.64;100.00;101046.94;5066765;28;20371;-79
2024/01/06 10:36:46;;;;;;;;;;;;;;;2.65;100.00;101044.38;5053704;28;19925;-79
2024/01/06 10:39:15;;;;;;;;;;;;;;;2.71;100.00;101046.25;5053314;28;19931;-77
2024/01/06 10:41:42;;;;;;;;;;;;;;;2.75;100.00;101042.91;5040922;28;19974;-80
2024/01/06 10:44:07;;;;;;;;;;;;;;;2.77;100.00;101047.28;5066059;28;19920;-78
2024/01/06 10:46:33;;;;;;;;;;;;;;;2.77;100.00;101060.22;5070852;28;20402;-77
2024/01/06 10:49:00;;;;;;;;;;;;;;;2.86;100.00;101059.56;5038706;28;20403;-78
2024/01/06 10:51:27;;;;;;;;;;;;;;;2.80;100.00;101061.13;5056126;28;19920;-77
2024/01/06 10:53:53;;;;;;;;;;;;;;;2.75;100.00;101061.88;5055463;28;19967;-79
2024/01/06 10:56:19;;;;;;;;;;;;;;;2.78;100.00;101058.50;5062435;28;19955;-77
2024/01/06 10:58:49;;;;;;;;;;;;;;;2.83;100.00;101062.06;5074222;28;19916;-78
2024/01/06 11:01:15;;;;;;;;;;;;;;;2.79;100.00;101068.00;5056349;28;19930;-78
2024/01/06 11:03:41;;;;;;;;;;;;;;;2.90;100.00;101069.16;5063760;28;19916;-81
2024/01/06 11:06:10;;;;;;;;;;;;;;;2.85;100.00;101068.16;5067547;28;20387;-79
2024/01/06 11:08:43;;;;;;;;;;;;;;;2.91;100.00;101070.00;5045217;28;19924;-77
2024/01/06 11:11:09;;;;;;;;;;;;;;;2.97;100.00;101077.91;5056538;28;19927;-78
2024/01/06 11:13:34;;;;;;;;;;;;;;;2.92;100.00;101072.63;5044617;28;19921;-78
2024/01/06 11:16:00;;;;;;;;;;;;;;;2.96;100.00;101071.00;5048467;28;20414;-80
2024/01/06 11:18:34;;;;;;;;;;;;;;;2.99;100.00;101077.94;5048902;28;20319;-80
2024/01/06 11:21:27;;;;;;;;;;;;;;;2.97;100.00;101077.91;5067593;28;21922;-80
2024/01/06 11:24:06;;;;;;;;;;;;;;;2.98;100.00;101071.03;5041386;28;19924;-79
2024/01/06 11:26:34;;;;;;;;;;;;;;;3.00;100.00;101079.69;5056709;28;19951;-79
2024/01/06 11:29:00;;;;;;;;;;;;;;;2.99;100.00;101078.84;5061514;28;19943;-77
2024/01/06 11:31:32;;;;;;;;;;;;;;;2.99;100.00;101077.94;5065735;28;20310;-77
2024/01/06 11:34:14;;;;;;;;;;;;;;;3.01;100.00;101081.44;5068015;28;19930;-78
2024/01/06 11:36:39;;;;;;;;;;;;;;;2.97;100.00;101077.03;5073641;28;19920;-78
2024/01/06 11:39:05;;;;;;;;;;;;;;;2.95;100.00;101083.03;5068240;28;19931;-79
2024/01/06 11:41:52;;;;;;;;;;;;;;;2.93;100.00;101086.44;5049086;28;20371;-79
2024/01/06 11:44:18;;;;;;;;;;;;;;;2.94;100.00;101081.31;5056177;28;20295;-79
2024/01/06 11:46:45;;;;;;;;;;;;;;;2.94;100.00;101089.09;5049442;28;19924;-80
2024/01/06 11:49:10;;;;;;;;;;;;;;;2.92;100.00;101082.97;5053877;28;19924;-79
2024/01/06 11:51:36;;;;;;;;;;;;;;;2.90;100.00;101083.78;5059604;28;20279;-78
2024/01/06 11:54:01;;;;;;;;;;;;;;;2.87;100.00;101087.16;5048451;28;19924;-80
2024/01/06 11:56:27;;;;;;;;;;;;;;;2.86;100.00;101085.44;5052561;28;19932;-79
2024/01/06 11:58:52;;;;;;;;;;;;;;;2.88;100.00;101094.09;5056047;28;20364;-80
2024/01/06 12:01:17;;;;;;;;;;;;;;;2.82;100.00;101095.69;5049997;28;19981;-79
2024/01/06 12:03:43;;;;;;;;;;;;;;;2.84;100.00;101096.59;5060923;28;19941;-78
2024/01/06 12:06:09;;;;;;;;;;;;;;;2.84;100.00;101088.81;5052643;28;19920;-82
2024/01/06 12:08:34;;;;;;;;;;;;;;;2.75;100.00;101089.47;5067138;28;19926;-81
2024/01/06 12:11:03;;;;;;;;;;;;;;;2.82;100.00;101093.09;5047144;28;20082;-78
2024/01/06 12:13:31;;;;;;;;;;;;;;;2.76;100.00;101097.28;5058082;28;19920;-80
2024/01/06 12:15:56;;;;;;;;;;;;;;;2.76;100.00;101089.50;5040570;28;19943;-82
2024/01/06 12:18:24;;;;;;;;;;;;;;;2.70;100.00;101091.97;5042776;28;19917;-81
2024/01/06 12:20:51;;;;;;;;;;;;;;;2.65;100.00;101092.69;5068431;28;19923;-83
2024/01/06 12:23:27;;;;;;;;;;;;;;;2.65;100.00;101098.72;5063547;28;19974;-83
2024/01/06 12:25:53;;;;;;;;;;;;;;;2.66;100.00;101095.31;5053911;28;19924;-81
2024/01/06 12:28:18;;;;;;;;;;;;;;;2.68;100.00;101095.34;5044159;28;19916;-81
2024/01/06 12:30:44;;;;;;;;;;;;;;;2.66;100.00;101105.66;5054140;28;19970;-83
2024/01/06 12:33:10;;;;;;;;;;;;;;;2.65;100.00;101097.84;5065488;28;19920;-74
2024/01/06 12:35:35;;;;;;;;;;;;;;;2.64;100.00;101096.97;5065263;28;20388;-80
2024/01/06 12:38:01;;;;;;;;;;;;;;;2.60;100.00;101097.72;5057038;28;19912;-82
2024/01/06 12:40:28;;;;;;;;;;;;;;;2.59;100.00;101101.16;5039904;28;19916;-81
2024/01/06 12:42:53;;;;;;;;;;;;;;;2.57;100.00;101100.22;5039825;28;20368;-83
2024/01/06 12:45:18;;;;;;;;;;;;;;;2.58;100.00;101099.41;5046999;28;19927;-81
2024/01/06 12:47:44;;;;;;;;;;;;;;;2.59;100.00;101096.84;5069895;28;20399;-82
2024/01/06 12:50:09;;;;;;;;;;;;;;;2.57;100.00;101105.41;5054769;28;20364;-82
2024/01/06 12:52:38;;;;;;;;;;;;;;;2.56;100.00;101101.97;5065444;28;19921;-81
2024/01/06 12:55:04;;;;;;;;;;;;;;;2.62;100.00;101106.41;5055589;28;19923;-84
2024/01/06 12:57:29;;;;;;;;;;;;;;;2.53;100.00;101103.56;5039350;28;19920;-82
2024/01/06 12:59:55;;;;;;;;;;;;;;;2.53;100.00;101099.28;5039639;28;19949;-82
2024/01/06 13:02:20;;;;;;;;;;;;;;;2.55;100.00;101107.09;5057073;28;19916;-82
2024/01/06 13:04:46;;;;;;;;;;;;;;;2.59;100.00;101106.34;5073907;28;19931;-81
2024/01/06 13:07:11;;;;;;;;;;;;;;;2.67;100.00;101111.69;5076345;28;19912;-80
2024/01/06 13:09:36;;;;;;;;;;;;;;;2.60;100.00;101105.47;5076381;28;19923;-81
2024/01/06 13:12:02;;;;;;;;;;;;;;;2.58;100.00;101113.22;5058258;28;19916;-83
2024/01/06 13:14:28;;;;;;;;;;;;;;;2.55;100.00;101109.69;5076598;28;19920;-82
2024/01/06 13:16:55;;;;;;;;;;;;;;;2.56;100.00;101119.19;5069108;28;20425;-80
2024/01/06 13:19:21;;;;;;;;;;;;;;;2.57;100.00;101111.47;5056591;28;19924;-81
2024/01/06 13:21:47;;;;;;;;;;;;;;;2.64;100.00;101117.66;5051962;28;19924;-81
2024/01/06 13:24:12;;;;;;;;;;;;;;;2.64;100.00;101114.22;5056093;28;19912;-82
2024/01/06 13:26:37;;;;;;;;;;;;;;;2.56;100.00;101114.88;5055491;28;19999;-81
2024/01/06 13:29:03;;;;;;;;;;;;;;;2.58;100.00;101120.09;5039571;28;19970;-80
2024/01/06 13:31:28;;;;;;;;;;;;;;;2.62;100.00;101119.34;5042593;28;19982;-84
2024/01/06 13:33:55;;;;;;;;;;;;;;;2.59;100.00;101124.44;5057389;28;19916;-81
2024/01/06 13:36:24;;;;;;;;;;;;;;;2.57;100.00;101127.00;5046155;28;19975;-82
2024/01/06 13:38:49;;;;;;;;;;;;;;;2.62;100.00;101131.41;5065893;28;19927;-78
2024/01/06 13:41:15;;;;;;;;;;;;;;;2.59;100.00;101135.66;5038522;28;19925;-77
2024/01/06 13:43:41;;;;;;;;;;;;;;;2.57;100.00;101137.34;5051284;28;19920;-77
2024/01/06 13:46:07;;;;;;;;;;;;;;;2.64;100.00;101138.34;5062042;28;19975;-76
2024/01/06 13:48:33;;;;;;;;;;;;;;;2.62;100.00;101140.06;5060448;28;20400;-78